sensor_id;sensor_type;location;lat;lon;timestamp;P1;durP1;ratioP1;P2;durP2;ratioP2
41635;SDS011;27623;51.966;4.602;2023-03-11T00:00:41;8.07;;;2.08;;
41635;SDS011;27623;51.966;4.602;2023-03-11T00:03:10;2.08;;;0.65;;
41635;SDS011;27623;51.966;4.602;2023-03-11T00:05:37;6.13;;;0.95;;
41635;SDS011;27623;51.966;4.602;2023-03-11T00:08:04;6.00;;;1.33;;
41635;SDS011;27623;51.966;4.602;2023-03-11T00:10:32;6.22;;;0.98;;
41635;SDS011;27623;51.966;4.602;2023-03-11T00:13:00;4.22;;;1.25;;
41635;SDS011;27623;51.966;4.602;2023-03-11T00:15:28;4.40;;;1.25;;
41635;SDS011;27623;51.966;4.602;2023-03-11T00:17:54;4.28;;;1.10;;
41635;SDS011;27623;51.966;4.602;2023-03-11T00:22:53;3.42;;;0.90;;
41635;SDS011;27623;51.966;4.602;2023-03-11T00:25:19;7.15;;;0.95;;
41635;SDS011;27623;51.966;4.602;2023-03-11T00:27:46;4.80;;;1.02;;
41635;SDS011;27623;51.966;4.602;2023-03-11T00:30:11;5.40;;;0.80;;
41635;SDS011;27623;51.966;4.602;2023-03-11T00:32:38;3.28;;;0.57;;
41635;SDS011;27623;51.966;4.602;2023-03-11T00:35:03;4.80;;;0.65;;
41635;SDS011;27623;51.966;4.602;2023-03-11T00:37:29;1.75;;;0.40;;
41635;SDS011;27623;51.966;4.602;2023-03-11T00:39:55;6.18;;;0.75;;
41635;SDS011;27623;51.966;4.602;2023-03-11T00:42:20;4.80;;;0.57;;
41635;SDS011;27623;51.966;4.602;2023-03-11T00:44:46;3.67;;;0.65;;
41635;SDS011;27623;51.966;4.602;2023-03-11T00:47:11;3.60;;;0.60;;
41635;SDS011;27623;51.966;4.602;2023-03-11T00:49:40;3.33;;;0.65;;
41635;SDS011;27623;51.966;4.602;2023-03-11T00:52:08;0.77;;;0.40;;
41635;SDS011;27623;51.966;4.602;2023-03-11T00:54:33;2.88;;;0.50;;
41635;SDS011;27623;51.966;4.602;2023-03-11T00:56:59;3.83;;;0.55;;
41635;SDS011;27623;51.966;4.602;2023-03-11T00:59:24;10.13;;;1.35;;
41635;SDS011;27623;51.966;4.602;2023-03-11T01:01:49;2.42;;;0.80;;
41635;SDS011;27623;51.966;4.602;2023-03-11T01:04:15;2.50;;;0.40;;
41635;SDS011;27623;51.966;4.602;2023-03-11T01:06:40;4.60;;;0.65;;
41635;SDS011;27623;51.966;4.602;2023-03-11T01:09:06;1.02;;;0.40;;
41635;SDS011;27623;51.966;4.602;2023-03-11T01:11:31;1.35;;;0.40;;
41635;SDS011;27623;51.966;4.602;2023-03-11T01:13:57;3.67;;;0.63;;
41635;SDS011;27623;51.966;4.602;2023-03-11T01:16:22;2.80;;;0.98;;
41635;SDS011;27623;51.966;4.602;2023-03-11T01:18:48;3.38;;;0.60;;
41635;SDS011;27623;51.966;4.602;2023-03-11T01:21:13;6.47;;;0.82;;
41635;SDS011;27623;51.966;4.602;2023-03-11T01:23:39;2.75;;;0.40;;
41635;SDS011;27623;51.966;4.602;2023-03-11T01:26:05;1.20;;;0.40;;
41635;SDS011;27623;51.966;4.602;2023-03-11T01:28:31;2.22;;;0.40;;
41635;SDS011;27623;51.966;4.602;2023-03-11T01:30:57;3.85;;;0.40;;
41635;SDS011;27623;51.966;4.602;2023-03-11T01:33:22;2.05;;;0.77;;
41635;SDS011;27623;51.966;4.602;2023-03-11T01:35:48;5.35;;;0.65;;
41635;SDS011;27623;51.966;4.602;2023-03-11T01:38:13;4.20;;;0.40;;
41635;SDS011;27623;51.966;4.602;2023-03-11T01:40:45;5.63;;;0.75;;
41635;SDS011;27623;51.966;4.602;2023-03-11T01:46:11;2.15;;;0.57;;
41635;SDS011;27623;51.966;4.602;2023-03-11T01:48:46;1.88;;;0.52;;
41635;SDS011;27623;51.966;4.602;2023-03-11T01:51:18;2.67;;;0.70;;
41635;SDS011;27623;51.966;4.602;2023-03-11T01:53:50;5.75;;;0.60;;
41635;SDS011;27623;51.966;4.602;2023-03-11T01:56:17;1.35;;;0.50;;
41635;SDS011;27623;51.966;4.602;2023-03-11T01:58:43;2.28;;;0.47;;
41635;SDS011;27623;51.966;4.602;2023-03-11T02:01:14;1.00;;;0.45;;
41635;SDS011;27623;51.966;4.602;2023-03-11T02:03:40;2.40;;;0.40;;
41635;SDS011;27623;51.966;4.602;2023-03-11T02:06:14;6.13;;;1.48;;
41635;SDS011;27623;51.966;4.602;2023-03-11T02:08:42;2.95;;;0.77;;
41635;SDS011;27623;51.966;4.602;2023-03-11T02:11:09;6.00;;;0.60;;
41635;SDS011;27623;51.966;4.602;2023-03-11T02:13:48;2.90;;;0.70;;
41635;SDS011;27623;51.966;4.602;2023-03-11T02:16:15;3.40;;;0.60;;
41635;SDS011;27623;51.966;4.602;2023-03-11T02:18:41;3.53;;;0.70;;
41635;SDS011;27623;51.966;4.602;2023-03-11T02:23:49;4.95;;;0.80;;
41635;SDS011;27623;51.966;4.602;2023-03-11T02:26:28;1.05;;;0.60;;
41635;SDS011;27623;51.966;4.602;2023-03-11T02:29:04;5.57;;;0.70;;
41635;SDS011;27623;51.966;4.602;2023-03-11T02:31:32;6.72;;;0.70;;
41635;SDS011;27623;51.966;4.602;2023-03-11T02:34:00;1.88;;;0.60;;
41635;SDS011;27623;51.966;4.602;2023-03-11T02:36:34;1.42;;;0.40;;
41635;SDS011;27623;51.966;4.602;2023-03-11T02:39:01;4.03;;;0.80;;
41635;SDS011;27623;51.966;4.602;2023-03-11T02:41:28;2.53;;;0.60;;
41635;SDS011;27623;51.966;4.602;2023-03-11T02:43:55;2.72;;;0.65;;
41635;SDS011;27623;51.966;4.602;2023-03-11T02:46:22;3.75;;;1.70;;
41635;SDS011;27623;51.966;4.602;2023-03-11T02:48:47;6.38;;;0.60;;
41635;SDS011;27623;51.966;4.602;2023-03-11T02:51:13;1.88;;;0.60;;
41635;SDS011;27623;51.966;4.602;2023-03-11T02:53:46;4.95;;;0.93;;
41635;SDS011;27623;51.966;4.602;2023-03-11T02:56:15;6.68;;;1.00;;
41635;SDS011;27623;51.966;4.602;2023-03-11T02:58:40;2.40;;;0.80;;
41635;SDS011;27623;51.966;4.602;2023-03-11T03:01:08;5.05;;;0.88;;
41635;SDS011;27623;51.966;4.602;2023-03-11T03:03:34;4.07;;;0.70;;
41635;SDS011;27623;51.966;4.602;2023-03-11T03:05:59;1.85;;;0.98;;
41635;SDS011;27623;51.966;4.602;2023-03-11T03:08:24;3.83;;;0.80;;
41635;SDS011;27623;51.966;4.602;2023-03-11T03:10:50;6.13;;;1.42;;
41635;SDS011;27623;51.966;4.602;2023-03-11T03:13:15;2.70;;;0.80;;
41635;SDS011;27623;51.966;4.602;2023-03-11T03:15:41;3.45;;;0.65;;
41635;SDS011;27623;51.966;4.602;2023-03-11T03:18:06;2.63;;;0.80;;
41635;SDS011;27623;51.966;4.602;2023-03-11T03:20:32;5.03;;;0.60;;
41635;SDS011;27623;51.966;4.602;2023-03-11T03:22:57;1.52;;;0.63;;
41635;SDS011;27623;51.966;4.602;2023-03-11T03:25:22;2.15;;;0.98;;
41635;SDS011;27623;51.966;4.602;2023-03-11T03:27:48;4.63;;;0.70;;
41635;SDS011;27623;51.966;4.602;2023-03-11T03:30:14;3.70;;;0.88;;
41635;SDS011;27623;51.966;4.602;2023-03-11T03:32:42;3.45;;;0.50;;
41635;SDS011;27623;51.966;4.602;2023-03-11T03:35:08;5.10;;;1.20;;
41635;SDS011;27623;51.966;4.602;2023-03-11T03:37:34;2.08;;;0.60;;
41635;SDS011;27623;51.966;4.602;2023-03-11T03:40:04;2.08;;;0.68;;
41635;SDS011;27623;51.966;4.602;2023-03-11T03:42:34;5.15;;;0.70;;
41635;SDS011;27623;51.966;4.602;2023-03-11T03:45:00;3.35;;;0.70;;
41635;SDS011;27623;51.966;4.602;2023-03-11T03:47:26;1.77;;;0.80;;
41635;SDS011;27623;51.966;4.602;2023-03-11T03:49:52;2.92;;;0.88;;
41635;SDS011;27623;51.966;4.602;2023-03-11T03:52:17;4.60;;;0.90;;
41635;SDS011;27623;51.966;4.602;2023-03-11T03:54:43;4.00;;;0.82;;
41635;SDS011;27623;51.966;4.602;2023-03-11T03:57:08;1.45;;;0.73;;
41635;SDS011;27623;51.966;4.602;2023-03-11T03:59:36;2.78;;;0.60;;
41635;SDS011;27623;51.966;4.602;2023-03-11T04:02:04;3.45;;;0.80;;
41635;SDS011;27623;51.966;4.602;2023-03-11T04:04:30;2.45;;;0.68;;
41635;SDS011;27623;51.966;4.602;2023-03-11T04:06:56;5.70;;;0.88;;
41635;SDS011;27623;51.966;4.602;2023-03-11T04:09:23;2.83;;;0.70;;
41635;SDS011;27623;51.966;4.602;2023-03-11T04:11:49;2.28;;;0.88;;
41635;SDS011;27623;51.966;4.602;2023-03-11T04:14:14;4.13;;;0.90;;
41635;SDS011;27623;51.966;4.602;2023-03-11T04:16:42;3.72;;;0.95;;
41635;SDS011;27623;51.966;4.602;2023-03-11T04:19:08;5.75;;;0.98;;
41635;SDS011;27623;51.966;4.602;2023-03-11T04:21:33;1.40;;;0.60;;
41635;SDS011;27623;51.966;4.602;2023-03-11T04:23:59;2.60;;;0.75;;
41635;SDS011;27623;51.966;4.602;2023-03-11T04:26:25;4.40;;;0.70;;
41635;SDS011;27623;51.966;4.602;2023-03-11T04:28:50;6.50;;;0.80;;
41635;SDS011;27623;51.966;4.602;2023-03-11T04:31:16;1.65;;;0.60;;
41635;SDS011;27623;51.966;4.602;2023-03-11T04:33:41;5.93;;;0.98;;
41635;SDS011;27623;51.966;4.602;2023-03-11T04:36:07;4.82;;;1.40;;
41635;SDS011;27623;51.966;4.602;2023-03-11T04:38:33;3.60;;;1.17;;
41635;SDS011;27623;51.966;4.602;2023-03-11T04:41:02;1.85;;;0.82;;
41635;SDS011;27623;51.966;4.602;2023-03-11T04:43:29;5.85;;;1.00;;
41635;SDS011;27623;51.966;4.602;2023-03-11T04:45:54;2.05;;;0.85;;
41635;SDS011;27623;51.966;4.602;2023-03-11T04:48:20;5.35;;;0.90;;
41635;SDS011;27623;51.966;4.602;2023-03-11T04:50:45;1.77;;;0.73;;
41635;SDS011;27623;51.966;4.602;2023-03-11T04:53:11;1.52;;;0.60;;
41635;SDS011;27623;51.966;4.602;2023-03-11T04:55:36;3.95;;;0.70;;
41635;SDS011;27623;51.966;4.602;2023-03-11T04:58:03;8.95;;;1.30;;
41635;SDS011;27623;51.966;4.602;2023-03-11T05:00:29;4.55;;;0.95;;
41635;SDS011;27623;51.966;4.602;2023-03-11T05:02:54;7.10;;;2.17;;
41635;SDS011;27623;51.966;4.602;2023-03-11T05:05:19;1.00;;;0.70;;
41635;SDS011;27623;51.966;4.602;2023-03-11T05:07:45;2.97;;;0.82;;
41635;SDS011;27623;51.966;4.602;2023-03-11T05:10:11;3.45;;;0.80;;
41635;SDS011;27623;51.966;4.602;2023-03-11T05:12:36;3.72;;;0.73;;
41635;SDS011;27623;51.966;4.602;2023-03-11T05:15:02;9.70;;;1.00;;
41635;SDS011;27623;51.966;4.602;2023-03-11T05:17:28;2.55;;;0.80;;
41635;SDS011;27623;51.966;4.602;2023-03-11T05:19:53;2.80;;;0.80;;
41635;SDS011;27623;51.966;4.602;2023-03-11T05:22:19;8.48;;;1.10;;
41635;SDS011;27623;51.966;4.602;2023-03-11T05:24:45;5.50;;;0.90;;
41635;SDS011;27623;51.966;4.602;2023-03-11T05:27:11;9.15;;;1.20;;
41635;SDS011;27623;51.966;4.602;2023-03-11T05:29:37;6.28;;;1.10;;
41635;SDS011;27623;51.966;4.602;2023-03-11T05:32:02;4.93;;;1.30;;
41635;SDS011;27623;51.966;4.602;2023-03-11T05:34:28;3.80;;;0.88;;
41635;SDS011;27623;51.966;4.602;2023-03-11T05:36:54;3.58;;;0.80;;
41635;SDS011;27623;51.966;4.602;2023-03-11T05:39:19;5.75;;;1.30;;
41635;SDS011;27623;51.966;4.602;2023-03-11T05:41:44;4.53;;;0.95;;
41635;SDS011;27623;51.966;4.602;2023-03-11T05:44:10;3.63;;;0.88;;
41635;SDS011;27623;51.966;4.602;2023-03-11T05:46:35;3.08;;;0.85;;
41635;SDS011;27623;51.966;4.602;2023-03-11T05:49:01;6.45;;;0.98;;
41635;SDS011;27623;51.966;4.602;2023-03-11T05:51:28;3.42;;;1.17;;
41635;SDS011;27623;51.966;4.602;2023-03-11T05:53:54;4.82;;;1.02;;
41635;SDS011;27623;51.966;4.602;2023-03-11T05:56:20;4.50;;;1.08;;
41635;SDS011;27623;51.966;4.602;2023-03-11T05:58:47;3.65;;;1.08;;
41635;SDS011;27623;51.966;4.602;2023-03-11T06:01:14;4.43;;;0.98;;
41635;SDS011;27623;51.966;4.602;2023-03-11T06:03:41;4.00;;;1.08;;
41635;SDS011;27623;51.966;4.602;2023-03-11T06:06:08;8.88;;;1.45;;
41635;SDS011;27623;51.966;4.602;2023-03-11T06:08:35;2.80;;;1.00;;
41635;SDS011;27623;51.966;4.602;2023-03-11T06:11:01;4.80;;;1.00;;
41635;SDS011;27623;51.966;4.602;2023-03-11T06:13:33;3.10;;;1.25;;
41635;SDS011;27623;51.966;4.602;2023-03-11T06:15:59;3.45;;;1.23;;
41635;SDS011;27623;51.966;4.602;2023-03-11T06:18:25;6.25;;;1.35;;
41635;SDS011;27623;51.966;4.602;2023-03-11T06:20:56;6.63;;;1.40;;
41635;SDS011;27623;51.966;4.602;2023-03-11T06:23:23;6.85;;;2.03;;
41635;SDS011;27623;51.966;4.602;2023-03-11T06:26:22;3.88;;;1.33;;
41635;SDS011;27623;51.966;4.602;2023-03-11T06:28:42;3.45;;;1.17;;
41635;SDS011;27623;51.966;4.602;2023-03-11T06:31:09;2.63;;;1.20;;
41635;SDS011;27623;51.966;4.602;2023-03-11T06:33:38;2.70;;;1.20;;
41635;SDS011;27623;51.966;4.602;2023-03-11T06:36:04;5.55;;;1.83;;
41635;SDS011;27623;51.966;4.602;2023-03-11T06:38:30;5.95;;;1.20;;
41635;SDS011;27623;51.966;4.602;2023-03-11T06:41:00;3.42;;;1.23;;
41635;SDS011;27623;51.966;4.602;2023-03-11T06:43:27;2.97;;;1.10;;
41635;SDS011;27623;51.966;4.602;2023-03-11T06:45:53;4.55;;;1.13;;
41635;SDS011;27623;51.966;4.602;2023-03-11T06:48:19;3.80;;;1.10;;
41635;SDS011;27623;51.966;4.602;2023-03-11T06:50:52;3.60;;;1.15;;
41635;SDS011;27623;51.966;4.602;2023-03-11T06:53:24;6.13;;;1.40;;
41635;SDS011;27623;51.966;4.602;2023-03-11T06:56:01;2.90;;;1.10;;
41635;SDS011;27623;51.966;4.602;2023-03-11T06:58:32;5.72;;;1.10;;
41635;SDS011;27623;51.966;4.602;2023-03-11T07:00:59;4.85;;;0.90;;
41635;SDS011;27623;51.966;4.602;2023-03-11T07:03:26;3.35;;;0.90;;
41635;SDS011;27623;51.966;4.602;2023-03-11T07:05:51;6.22;;;0.98;;
41635;SDS011;27623;51.966;4.602;2023-03-11T07:08:17;5.93;;;1.20;;
41635;SDS011;27623;51.966;4.602;2023-03-11T07:10:42;8.68;;;2.10;;
41635;SDS011;27623;51.966;4.602;2023-03-11T07:13:08;7.68;;;1.20;;
41635;SDS011;27623;51.966;4.602;2023-03-11T07:15:33;4.10;;;1.45;;
41635;SDS011;27623;51.966;4.602;2023-03-11T07:17:59;5.60;;;1.35;;
41635;SDS011;27623;51.966;4.602;2023-03-11T07:20:25;2.03;;;1.17;;
41635;SDS011;27623;51.966;4.602;2023-03-11T07:22:51;4.60;;;1.77;;
41635;SDS011;27623;51.966;4.602;2023-03-11T07:25:17;3.28;;;1.35;;
41635;SDS011;27623;51.966;4.602;2023-03-11T07:27:42;5.95;;;1.58;;
41635;SDS011;27623;51.966;4.602;2023-03-11T07:30:10;3.55;;;1.50;;
41635;SDS011;27623;51.966;4.602;2023-03-11T07:32:36;7.05;;;1.50;;
41635;SDS011;27623;51.966;4.602;2023-03-11T07:35:01;5.32;;;1.60;;
41635;SDS011;27623;51.966;4.602;2023-03-11T07:37:27;8.20;;;1.50;;
41635;SDS011;27623;51.966;4.602;2023-03-11T07:39:53;6.35;;;1.23;;
41635;SDS011;27623;51.966;4.602;2023-03-11T07:42:18;4.97;;;1.60;;
41635;SDS011;27623;51.966;4.602;2023-03-11T07:44:43;11.50;;;2.05;;
41635;SDS011;27623;51.966;4.602;2023-03-11T07:47:09;9.75;;;1.60;;
41635;SDS011;27623;51.966;4.602;2023-03-11T07:49:34;6.32;;;1.23;;
41635;SDS011;27623;51.966;4.602;2023-03-11T07:52:00;5.00;;;1.60;;
41635;SDS011;27623;51.966;4.602;2023-03-11T07:54:25;7.93;;;1.52;;
41635;SDS011;27623;51.966;4.602;2023-03-11T07:56:51;4.82;;;1.50;;
41635;SDS011;27623;51.966;4.602;2023-03-11T07:59:16;4.53;;;1.17;;
41635;SDS011;27623;51.966;4.602;2023-03-11T08:01:51;2.95;;;1.25;;
41635;SDS011;27623;51.966;4.602;2023-03-11T08:04:16;4.43;;;1.17;;
41635;SDS011;27623;51.966;4.602;2023-03-11T08:06:43;5.88;;;1.08;;
41635;SDS011;27623;51.966;4.602;2023-03-11T08:09:10;5.38;;;1.50;;
41635;SDS011;27623;51.966;4.602;2023-03-11T08:11:36;5.28;;;1.33;;
41635;SDS011;27623;51.966;4.602;2023-03-11T08:14:01;12.18;;;1.60;;
41635;SDS011;27623;51.966;4.602;2023-03-11T08:16:28;7.72;;;2.20;;
41635;SDS011;27623;51.966;4.602;2023-03-11T08:18:53;4.95;;;1.42;;
41635;SDS011;27623;51.966;4.602;2023-03-11T08:21:20;7.28;;;1.48;;
41635;SDS011;27623;51.966;4.602;2023-03-11T08:23:48;7.00;;;1.60;;
41635;SDS011;27623;51.966;4.602;2023-03-11T08:26:15;9.35;;;2.33;;
41635;SDS011;27623;51.966;4.602;2023-03-11T08:28:42;3.97;;;1.40;;
41635;SDS011;27623;51.966;4.602;2023-03-11T08:31:15;5.97;;;1.13;;
41635;SDS011;27623;51.966;4.602;2023-03-11T08:33:41;3.80;;;1.10;;
41635;SDS011;27623;51.966;4.602;2023-03-11T08:36:07;5.10;;;1.70;;
41635;SDS011;27623;51.966;4.602;2023-03-11T08:38:33;5.22;;;1.52;;
41635;SDS011;27623;51.966;4.602;2023-03-11T08:40:58;6.57;;;1.35;;
41635;SDS011;27623;51.966;4.602;2023-03-11T08:43:24;6.15;;;1.67;;
41635;SDS011;27623;51.966;4.602;2023-03-11T08:45:50;5.20;;;1.30;;
41635;SDS011;27623;51.966;4.602;2023-03-11T08:48:15;5.60;;;1.40;;
41635;SDS011;27623;51.966;4.602;2023-03-11T08:50:41;7.28;;;1.90;;
41635;SDS011;27623;51.966;4.602;2023-03-11T08:53:09;3.08;;;1.30;;
41635;SDS011;27623;51.966;4.602;2023-03-11T08:55:35;7.47;;;1.50;;
41635;SDS011;27623;51.966;4.602;2023-03-11T08:58:01;4.38;;;1.27;;
41635;SDS011;27623;51.966;4.602;2023-03-11T09:00:27;7.60;;;0.98;;
41635;SDS011;27623;51.966;4.602;2023-03-11T09:02:52;3.80;;;1.50;;
41635;SDS011;27623;51.966;4.602;2023-03-11T09:05:20;7.68;;;1.38;;
41635;SDS011;27623;51.966;4.602;2023-03-11T09:07:45;6.45;;;1.50;;
41635;SDS011;27623;51.966;4.602;2023-03-11T09:10:14;5.00;;;1.42;;
41635;SDS011;27623;51.966;4.602;2023-03-11T09:12:41;5.43;;;0.95;;
41635;SDS011;27623;51.966;4.602;2023-03-11T09:15:07;6.43;;;1.33;;
41635;SDS011;27623;51.966;4.602;2023-03-11T09:17:35;6.38;;;1.30;;
41635;SDS011;27623;51.966;4.602;2023-03-11T09:20:01;4.65;;;1.35;;
41635;SDS011;27623;51.966;4.602;2023-03-11T09:22:26;6.30;;;1.30;;
41635;SDS011;27623;51.966;4.602;2023-03-11T09:24:52;4.20;;;1.00;;
41635;SDS011;27623;51.966;4.602;2023-03-11T09:27:17;5.93;;;1.10;;
41635;SDS011;27623;51.966;4.602;2023-03-11T09:29:43;7.32;;;0.95;;
41635;SDS011;27623;51.966;4.602;2023-03-11T09:32:11;4.97;;;1.65;;
41635;SDS011;27623;51.966;4.602;2023-03-11T09:34:37;4.32;;;1.30;;
41635;SDS011;27623;51.966;4.602;2023-03-11T09:37:03;4.75;;;1.98;;
41635;SDS011;27623;51.966;4.602;2023-03-11T09:39:28;6.68;;;1.05;;
41635;SDS011;27623;51.966;4.602;2023-03-11T09:55:11;3.78;;;1.10;;
41635;SDS011;27623;51.966;4.602;2023-03-11T09:58:03;4.70;;;0.87;;
41635;SDS011;27623;51.966;4.602;2023-03-11T10:00:35;4.95;;;0.90;;
41635;SDS011;27623;51.966;4.602;2023-03-11T10:03:03;6.40;;;1.15;;
41635;SDS011;27623;51.966;4.602;2023-03-11T10:05:37;5.95;;;1.27;;
41635;SDS011;27623;51.966;4.602;2023-03-11T10:10:41;2.53;;;0.90;;
41635;SDS011;27623;51.966;4.602;2023-03-11T10:13:14;8.38;;;1.08;;
41635;SDS011;27623;51.966;4.602;2023-03-11T10:15:51;6.00;;;1.02;;
41635;SDS011;27623;51.966;4.602;2023-03-11T10:24:18;5.78;;;2.20;;
41635;SDS011;27623;51.966;4.602;2023-03-11T10:26:55;6.32;;;0.90;;
41635;SDS011;27623;51.966;4.602;2023-03-11T10:29:26;4.80;;;0.50;;
41635;SDS011;27623;51.966;4.602;2023-03-11T10:34:42;4.82;;;0.80;;
41635;SDS011;27623;51.966;4.602;2023-03-11T10:37:16;2.92;;;0.65;;
41635;SDS011;27623;51.966;4.602;2023-03-11T10:39:48;8.00;;;0.80;;
41635;SDS011;27623;51.966;4.602;2023-03-11T10:42:15;2.75;;;0.70;;
41635;SDS011;27623;51.966;4.602;2023-03-11T10:44:52;5.20;;;1.00;;
41635;SDS011;27623;51.966;4.602;2023-03-11T10:47:21;2.28;;;0.77;;
41635;SDS011;27623;51.966;4.602;2023-03-11T10:49:48;2.92;;;0.60;;
41635;SDS011;27623;51.966;4.602;2023-03-11T10:52:14;6.88;;;0.77;;
41635;SDS011;27623;51.966;4.602;2023-03-11T10:54:40;3.67;;;0.95;;
41635;SDS011;27623;51.966;4.602;2023-03-11T10:57:23;9.02;;;0.90;;
41635;SDS011;27623;51.966;4.602;2023-03-11T11:00:00;3.88;;;0.75;;
41635;SDS011;27623;51.966;4.602;2023-03-11T11:02:50;5.60;;;1.08;;
41635;SDS011;27623;51.966;4.602;2023-03-11T11:05:29;2.40;;;1.00;;
41635;SDS011;27623;51.966;4.602;2023-03-11T11:08:14;4.35;;;1.33;;
41635;SDS011;27623;51.966;4.602;2023-03-11T11:13:21;2.17;;;0.82;;
41635;SDS011;27623;51.966;4.602;2023-03-11T11:15:55;6.97;;;1.20;;
41635;SDS011;27623;51.966;4.602;2023-03-11T11:21:00;5.43;;;0.90;;
41635;SDS011;27623;51.966;4.602;2023-03-11T11:23:32;5.55;;;1.48;;
41635;SDS011;27623;51.966;4.602;2023-03-11T11:26:02;6.13;;;0.90;;
41635;SDS011;27623;51.966;4.602;2023-03-11T11:28:33;3.53;;;0.90;;
41635;SDS011;27623;51.966;4.602;2023-03-11T11:31:00;4.22;;;1.15;;
41635;SDS011;27623;51.966;4.602;2023-03-11T11:36:18;2.25;;;0.90;;
41635;SDS011;27623;51.966;4.602;2023-03-11T11:38:48;2.90;;;0.88;;
41635;SDS011;27623;51.966;4.602;2023-03-11T11:41:20;4.28;;;0.85;;
41635;SDS011;27623;51.966;4.602;2023-03-11T11:43:54;10.20;;;1.50;;
41635;SDS011;27623;51.966;4.602;2023-03-11T11:49:29;6.57;;;1.02;;
41635;SDS011;27623;51.966;4.602;2023-03-11T11:54:39;5.60;;;1.48;;
41635;SDS011;27623;51.966;4.602;2023-03-11T11:57:09;4.05;;;1.10;;
41635;SDS011;27623;51.966;4.602;2023-03-11T11:59:37;4.40;;;1.13;;
41635;SDS011;27623;51.966;4.602;2023-03-11T12:07:24;6.72;;;1.05;;
41635;SDS011;27623;51.966;4.602;2023-03-11T12:17:51;3.03;;;1.20;;
41635;SDS011;27623;51.966;4.602;2023-03-11T12:23:15;3.17;;;0.80;;
41635;SDS011;27623;51.966;4.602;2023-03-11T12:31:19;3.78;;;1.02;;
41635;SDS011;27623;51.966;4.602;2023-03-11T12:33:47;3.15;;;0.93;;
41635;SDS011;27623;51.966;4.602;2023-03-11T12:36:20;2.28;;;0.88;;
41635;SDS011;27623;51.966;4.602;2023-03-11T12:38:53;5.25;;;0.90;;
41635;SDS011;27623;51.966;4.602;2023-03-11T12:46:16;2.45;;;0.60;;
41635;SDS011;27623;51.966;4.602;2023-03-11T12:48:46;4.20;;;0.80;;
41635;SDS011;27623;51.966;4.602;2023-03-11T12:53:52;2.60;;;0.70;;
41635;SDS011;27623;51.966;4.602;2023-03-11T13:04:39;6.97;;;0.82;;
41635;SDS011;27623;51.966;4.602;2023-03-11T13:09:36;4.68;;;0.80;;
41635;SDS011;27623;51.966;4.602;2023-03-11T13:12:02;2.25;;;0.60;;
41635;SDS011;27623;51.966;4.602;2023-03-11T13:14:33;5.25;;;0.80;;
41635;SDS011;27623;51.966;4.602;2023-03-11T13:17:22;6.15;;;0.75;;
41635;SDS011;27623;51.966;4.602;2023-03-11T13:19:53;1.20;;;0.60;;
41635;SDS011;27623;51.966;4.602;2023-03-11T13:27:57;6.53;;;0.70;;
41635;SDS011;27623;51.966;4.602;2023-03-11T13:30:32;3.65;;;0.43;;
41635;SDS011;27623;51.966;4.602;2023-03-11T13:41:16;0.88;;;0.40;;
41635;SDS011;27623;51.966;4.602;2023-03-11T13:43:49;6.97;;;0.98;;
41635;SDS011;27623;51.966;4.602;2023-03-11T13:46:35;1.27;;;0.50;;
41635;SDS011;27623;51.966;4.602;2023-03-11T13:49:06;2.67;;;0.50;;
41635;SDS011;27623;51.966;4.602;2023-03-11T13:51:48;3.20;;;0.60;;
41635;SDS011;27623;51.966;4.602;2023-03-11T13:56:50;2.95;;;0.55;;
41635;SDS011;27623;51.966;4.602;2023-03-11T13:59:22;1.95;;;0.63;;
41635;SDS011;27623;51.966;4.602;2023-03-11T14:01:54;2.70;;;0.60;;
41635;SDS011;27623;51.966;4.602;2023-03-11T14:04:26;4.78;;;0.85;;
41635;SDS011;27623;51.966;4.602;2023-03-11T14:06:56;4.18;;;0.60;;
41635;SDS011;27623;51.966;4.602;2023-03-11T14:09:23;5.10;;;0.50;;
41635;SDS011;27623;51.966;4.602;2023-03-11T14:11:53;2.90;;;0.60;;
41635;SDS011;27623;51.966;4.602;2023-03-11T14:17:16;2.40;;;0.50;;
41635;SDS011;27623;51.966;4.602;2023-03-11T14:20:00;1.90;;;0.38;;
41635;SDS011;27623;51.966;4.602;2023-03-11T14:22:28;3.45;;;0.45;;
41635;SDS011;27623;51.966;4.602;2023-03-11T14:24:56;4.07;;;0.50;;
41635;SDS011;27623;51.966;4.602;2023-03-11T14:27:22;3.72;;;0.60;;
41635;SDS011;27623;51.966;4.602;2023-03-11T14:29:47;3.05;;;0.60;;
41635;SDS011;27623;51.966;4.602;2023-03-11T14:34:45;2.50;;;0.70;;
41635;SDS011;27623;51.966;4.602;2023-03-11T14:37:45;1.40;;;0.40;;
41635;SDS011;27623;51.966;4.602;2023-03-11T14:40:18;3.15;;;0.60;;
41635;SDS011;27623;51.966;4.602;2023-03-11T14:42:49;2.95;;;0.70;;
41635;SDS011;27623;51.966;4.602;2023-03-11T14:45:18;1.85;;;0.43;;
41635;SDS011;27623;51.966;4.602;2023-03-11T14:50:37;3.67;;;0.63;;
41635;SDS011;27623;51.966;4.602;2023-03-11T14:55:31;2.08;;;0.55;;
41635;SDS011;27623;51.966;4.602;2023-03-11T14:58:10;1.40;;;0.35;;
41635;SDS011;27623;51.966;4.602;2023-03-11T15:00:45;2.38;;;0.40;;
41635;SDS011;27623;51.966;4.602;2023-03-11T15:03:24;3.17;;;0.50;;
41635;SDS011;27623;51.966;4.602;2023-03-11T15:08:34;2.20;;;0.95;;
41635;SDS011;27623;51.966;4.602;2023-03-11T15:13:38;2.75;;;0.50;;
41635;SDS011;27623;51.966;4.602;2023-03-11T15:16:07;1.75;;;0.85;;
41635;SDS011;27623;51.966;4.602;2023-03-11T15:18:49;7.35;;;0.88;;
41635;SDS011;27623;51.966;4.602;2023-03-11T15:21:18;4.55;;;0.70;;
41635;SDS011;27623;51.966;4.602;2023-03-11T15:23:47;0.63;;;0.38;;
41635;SDS011;27623;51.966;4.602;2023-03-11T15:26:19;1.63;;;0.90;;
41635;SDS011;27623;51.966;4.602;2023-03-11T15:28:57;1.33;;;0.30;;
41635;SDS011;27623;51.966;4.602;2023-03-11T15:31:29;2.83;;;0.40;;
41635;SDS011;27623;51.966;4.602;2023-03-11T15:36:42;3.50;;;0.60;;
41635;SDS011;27623;51.966;4.602;2023-03-11T15:47:25;2.70;;;0.47;;
41635;SDS011;27623;51.966;4.602;2023-03-11T15:49:56;1.52;;;0.50;;
41635;SDS011;27623;51.966;4.602;2023-03-11T15:52:22;3.60;;;0.65;;
41635;SDS011;27623;51.966;4.602;2023-03-11T15:54:47;3.70;;;0.57;;
41635;SDS011;27623;51.966;4.602;2023-03-11T15:57:19;3.10;;;0.52;;
41635;SDS011;27623;51.966;4.602;2023-03-11T16:02:21;3.30;;;0.50;;
41635;SDS011;27623;51.966;4.602;2023-03-11T16:04:48;3.08;;;0.57;;
41635;SDS011;27623;51.966;4.602;2023-03-11T16:07:14;4.05;;;0.70;;
41635;SDS011;27623;51.966;4.602;2023-03-11T16:09:40;3.88;;;0.70;;
41635;SDS011;27623;51.966;4.602;2023-03-11T16:12:19;4.00;;;0.90;;
41635;SDS011;27623;51.966;4.602;2023-03-11T16:14:46;2.45;;;0.70;;
41635;SDS011;27623;51.966;4.602;2023-03-11T16:17:12;2.15;;;0.63;;
41635;SDS011;27623;51.966;4.602;2023-03-11T16:19:40;1.63;;;0.65;;
41635;SDS011;27623;51.966;4.602;2023-03-11T16:22:30;3.10;;;0.70;;
41635;SDS011;27623;51.966;4.602;2023-03-11T16:25:01;6.60;;;1.20;;
41635;SDS011;27623;51.966;4.602;2023-03-11T16:27:27;2.75;;;0.90;;
41635;SDS011;27623;51.966;4.602;2023-03-11T16:29:53;4.50;;;0.60;;
41635;SDS011;27623;51.966;4.602;2023-03-11T16:32:18;3.13;;;0.57;;
41635;SDS011;27623;51.966;4.602;2023-03-11T16:34:44;3.58;;;0.80;;
41635;SDS011;27623;51.966;4.602;2023-03-11T16:37:12;3.65;;;1.00;;
41635;SDS011;27623;51.966;4.602;2023-03-11T16:39:40;3.00;;;0.80;;
41635;SDS011;27623;51.966;4.602;2023-03-11T16:42:05;4.18;;;0.90;;
41635;SDS011;27623;51.966;4.602;2023-03-11T16:44:31;4.00;;;0.70;;
41635;SDS011;27623;51.966;4.602;2023-03-11T16:46:57;2.63;;;1.20;;
41635;SDS011;27623;51.966;4.602;2023-03-11T16:49:23;2.65;;;0.77;;
41635;SDS011;27623;51.966;4.602;2023-03-11T16:51:48;2.05;;;0.77;;
41635;SDS011;27623;51.966;4.602;2023-03-11T16:54:14;5.65;;;0.60;;
41635;SDS011;27623;51.966;4.602;2023-03-11T16:56:39;9.10;;;0.63;;
41635;SDS011;27623;51.966;4.602;2023-03-11T16:59:05;1.30;;;0.60;;
41635;SDS011;27623;51.966;4.602;2023-03-11T17:01:31;5.20;;;0.70;;
41635;SDS011;27623;51.966;4.602;2023-03-11T17:03:57;2.25;;;0.70;;
41635;SDS011;27623;51.966;4.602;2023-03-11T17:06:22;5.25;;;0.50;;